createdAt,value
2023-05-05T00:02:23.010Z,70.99
2023-05-05T00:04:50.180Z,71.47
2023-05-05T00:07:17.544Z,72.64
2023-05-05T00:09:44.937Z,73.12
2023-05-05T00:12:12.270Z,74.10
2023-05-05T00:14:39.299Z,75.27
2023-05-05T00:17:06.731Z,74.49
2023-05-05T00:19:33.839Z,73.43
2023-05-05T00:22:00.845Z,73.38
2023-05-05T00:24:28.104Z,72.95
2023-05-05T00:26:57.280Z,73.91
2023-05-05T00:29:24.409Z,74.12
2023-05-05T00:31:52.524Z,74.82
2023-05-05T00:34:20.833Z,75.36
2023-05-05T00:36:48.557Z,76.31
2023-05-05T00:39:16.937Z,75.35
2023-05-05T00:41:44.143Z,74.55
2023-05-05T00:44:11.873Z,74.98
2023-05-05T00:46:40.790Z,75.11
2023-05-05T00:49:08.001Z,76.11
2023-05-05T00:51:35.405Z,77.16
2023-05-05T00:54:02.820Z,78.06
2023-05-05T00:56:30.054Z,78.78
2023-05-05T00:58:57.210Z,78.48
2023-05-05T01:01:24.895Z,76.93
2023-05-05T01:03:53.037Z,75.86
2023-05-05T01:06:46.321Z,75.52
2023-05-05T01:09:19.853Z,76.58
2023-05-05T01:11:56.934Z,77.02
2023-05-05T01:14:43.540Z,77.45
2023-05-05T01:17:19.785Z,77.60
2023-05-05T01:19:49.849Z,76.65
2023-05-05T01:25:42.360Z,76.18
2023-05-05T01:28:28.908Z,76.23
2023-05-05T01:31:32.204Z,77.48
2023-05-05T01:34:04.047Z,79.59
2023-05-05T01:36:38.346Z,79.67
2023-05-05T01:39:10.480Z,78.48
2023-05-05T01:41:42.090Z,76.92
2023-05-05T01:44:12.206Z,77.28
2023-05-05T01:46:39.697Z,78.04
2023-05-05T01:49:10.499Z,78.39
2023-05-05T01:51:40.211Z,78.03
2023-05-05T01:54:09.736Z,79.03
2023-05-05T01:56:40.853Z,77.75
2023-05-05T01:59:10.324Z,76.79
2023-05-05T02:01:42.041Z,76.38
2023-05-05T02:04:10.291Z,76.00
2023-05-05T02:06:39.799Z,77.32
2023-05-05T02:09:12.066Z,78.38
2023-05-05T02:11:40.758Z,78.70
2023-05-05T02:14:09.080Z,79.96
2023-05-05T02:16:38.583Z,79.38
2023-05-05T02:19:06.410Z,78.24
2023-05-05T02:21:34.594Z,77.46
2023-05-05T02:24:02.171Z,78.44
2023-05-05T02:26:33.968Z,79.08
2023-05-05T02:29:07.680Z,79.46
2023-05-05T02:31:39.688Z,79.32
2023-05-05T02:34:09.141Z,76.74
2023-05-05T02:36:39.764Z,75.42
2023-05-05T02:39:14.059Z,76.00
2023-05-05T02:41:45.324Z,76.39
2023-05-05T02:44:23.925Z,76.15
2023-05-05T02:46:51.962Z,75.87
2023-05-05T02:49:19.619Z,76.58
2023-05-05T02:51:47.057Z,77.24
2023-05-05T02:54:22.594Z,75.74
2023-05-05T02:56:51.686Z,74.77
2023-05-05T02:59:34.403Z,74.96
2023-05-05T03:02:16.569Z,75.19
2023-05-05T03:04:53.074Z,76.28
2023-05-05T03:07:50.288Z,76.92
2023-05-05T03:10:22.370Z,77.45
2023-05-05T03:12:58.599Z,77.28
2023-05-05T03:15:45.254Z,76.19
2023-05-05T03:18:15.702Z,74.35
2023-05-05T03:20:45.646Z,73.48
2023-05-05T03:23:14.807Z,74.18
2023-05-05T03:25:43.601Z,75.26
2023-05-05T03:28:12.719Z,76.03
2023-05-05T03:30:41.264Z,77.24
2023-05-05T03:33:11.483Z,79.83
2023-05-05T03:35:39.367Z,78.65
2023-05-05T03:38:07.896Z,77.36
2023-05-05T03:40:43.446Z,76.20
2023-05-05T03:43:12.324Z,76.33
2023-05-05T03:45:39.462Z,75.41
2023-05-05T03:48:07.436Z,75.46
2023-05-05T03:50:35.047Z,76.13
2023-05-05T03:53:03.234Z,77.51
2023-05-05T03:55:30.408Z,76.49
2023-05-05T03:57:57.972Z,74.75
2023-05-05T04:00:25.271Z,73.73
2023-05-05T04:02:52.760Z,73.02
2023-05-05T04:05:22.698Z,72.71
2023-05-05T04:07:49.952Z,72.63
2023-05-05T04:10:17.256Z,73.08
2023-05-05T04:12:44.710Z,72.83
2023-05-05T04:15:12.120Z,73.34
2023-05-05T04:17:40.566Z,73.35
2023-05-05T04:20:10.004Z,71.86
2023-05-05T04:22:37.465Z,70.98
2023-05-05T04:25:05.333Z,69.56
2023-05-05T04:27:33.583Z,69.28
2023-05-05T04:30:01.461Z,68.97
2023-05-05T04:32:31.416Z,69.60
2023-05-05T04:34:59.131Z,69.91
2023-05-05T04:37:26.630Z,70.21
2023-05-05T04:39:54.145Z,70.35
2023-05-05T04:42:21.717Z,70.94
2023-05-05T04:44:48.714Z,70.03
2023-05-05T04:47:16.858Z,68.36
2023-05-05T04:49:45.090Z,68.00
2023-05-05T04:52:16.079Z,68.38
2023-05-05T04:54:43.426Z,67.65
2023-05-05T04:57:10.723Z,67.57
2023-05-05T04:59:37.821Z,67.39
2023-05-05T05:02:05.351Z,66.17
2023-05-05T05:04:32.849Z,63.74
2023-05-05T05:07:01.501Z,59.99
2023-05-05T05:09:28.824Z,57.41
2023-05-05T05:12:01.089Z,56.24
2023-05-05T05:14:28.304Z,56.97
2023-05-05T05:19:41.237Z,57.99
2023-05-05T05:22:09.241Z,57.99
2023-05-05T05:24:38.577Z,56.99
2023-05-05T05:27:10.021Z,54.63
2023-05-05T05:29:38.441Z,52.42
2023-05-05T05:32:06.187Z,50.45
2023-05-05T05:34:33.727Z,50.37
2023-05-05T05:37:01.491Z,49.34
2023-05-05T05:39:28.824Z,47.44
2023-05-05T05:41:56.266Z,46.46
2023-05-05T05:44:23.601Z,44.78
2023-05-05T05:46:51.225Z,43.56
2023-05-05T05:49:18.337Z,44.03
2023-05-05T05:51:45.707Z,43.86
2023-05-05T05:54:13.845Z,43.93
2023-05-05T05:56:41.765Z,42.41
2023-05-05T05:59:10.326Z,42.75
2023-05-05T06:01:38.466Z,43.42
2023-05-05T06:04:05.769Z,43.15
2023-05-05T06:06:32.852Z,43.64
2023-05-05T06:09:01.225Z,43.42
2023-05-05T06:11:29.529Z,43.58
2023-05-05T06:13:56.669Z,43.42
2023-05-05T06:16:23.861Z,43.14
2023-05-05T06:18:51.150Z,43.31
2023-05-05T06:21:20.828Z,44.52
2023-05-05T06:23:48.232Z,44.85
2023-05-05T06:26:15.618Z,45.03
2023-05-05T06:28:43.091Z,44.58
2023-05-05T06:31:10.430Z,45.02
2023-05-05T06:33:37.599Z,45.11
2023-05-05T06:36:04.961Z,45.58
2023-05-05T06:38:32.390Z,46.85
2023-05-05T06:40:59.430Z,48.08
2023-05-05T06:43:27.242Z,48.88
2023-05-05T06:45:57.756Z,49.51
2023-05-05T06:48:24.911Z,49.43
2023-05-05T06:50:52.360Z,49.32
2023-05-05T06:53:19.460Z,49.68
2023-05-05T06:55:47.437Z,50.04
2023-05-05T06:58:14.513Z,50.15
2023-05-05T07:00:42.285Z,50.90
2023-05-05T07:03:09.450Z,51.23
2023-05-05T07:05:37.105Z,51.46
2023-05-05T07:08:04.320Z,51.32
2023-05-05T07:10:34.175Z,51.26
2023-05-05T07:13:01.508Z,49.71
2023-05-05T07:15:29.598Z,48.04
2023-05-05T07:17:57.856Z,47.83
2023-05-05T07:20:25.405Z,47.84
2023-05-05T07:22:52.582Z,49.15
2023-05-05T07:25:20.066Z,50.54
2023-05-05T07:27:47.196Z,51.01
2023-05-05T07:30:17.305Z,51.29
2023-05-05T07:32:46.404Z,51.55
2023-05-05T07:35:13.771Z,52.15
2023-05-05T07:37:40.982Z,52.16
2023-05-05T07:40:09.154Z,52.50
2023-05-05T07:42:36.436Z,52.46
2023-05-05T07:45:04.706Z,52.36
2023-05-05T07:47:32.283Z,52.53
2023-05-05T07:50:01.403Z,52.60
2023-05-05T07:52:44.097Z,52.11
2023-05-05T07:55:17.128Z,52.70
2023-05-05T07:57:44.198Z,53.05
2023-05-05T08:00:13.620Z,53.08
2023-05-05T08:02:41.674Z,53.03
2023-05-05T08:05:09.494Z,52.56
2023-05-05T08:07:41.133Z,52.66
2023-05-05T08:10:11.008Z,52.28
2023-05-05T08:12:38.716Z,51.46
2023-05-05T08:15:07.128Z,51.71
2023-05-05T08:17:58.016Z,50.65
2023-05-05T08:20:28.964Z,50.47
2023-05-05T08:22:56.558Z,50.01
2023-05-05T08:25:23.665Z,49.27
2023-05-05T08:27:50.819Z,49.42
2023-05-05T08:30:21.349Z,48.89
2023-05-05T08:32:48.699Z,48.81
2023-05-05T08:35:16.224Z,49.03
2023-05-05T08:37:43.508Z,48.52
2023-05-05T08:40:14.626Z,47.78
2023-05-05T08:42:42.360Z,48.01
2023-05-05T08:45:10.993Z,48.25
2023-05-05T08:47:39.418Z,47.71
2023-05-05T08:50:10.736Z,48.08
2023-05-05T08:52:49.173Z,47.49
2023-05-05T08:55:24.573Z,46.81
2023-05-05T08:57:54.973Z,46.98
2023-05-05T09:00:23.230Z,47.23
2023-05-05T09:02:51.092Z,45.81
2023-05-05T09:05:18.605Z,46.26
2023-05-05T09:07:47.487Z,46.37
2023-05-05T09:10:14.889Z,46.41
2023-05-05T09:12:42.715Z,46.15
2023-05-05T09:15:12.901Z,46.61
2023-05-05T09:17:41.132Z,46.93
2023-05-05T09:20:13.490Z,46.97
2023-05-05T09:22:43.637Z,46.45
2023-05-05T09:25:15.945Z,46.58
2023-05-05T09:27:48.323Z,46.43
2023-05-05T09:30:18.041Z,46.25
2023-05-05T09:32:46.606Z,46.76
2023-05-05T09:35:14.271Z,46.10
2023-05-05T09:37:42.483Z,45.90
2023-05-05T09:40:11.497Z,46.77
2023-05-05T09:42:40.230Z,46.96
2023-05-05T09:45:19.999Z,45.47
2023-05-05T09:47:48.894Z,44.91
2023-05-05T09:50:19.165Z,44.12
2023-05-05T09:52:57.756Z,45.40
2023-05-05T09:55:26.084Z,45.87
2023-05-05T09:57:53.921Z,45.10
2023-05-05T10:00:21.443Z,45.54
2023-05-05T10:02:48.768Z,45.94
2023-05-05T10:05:18.738Z,44.38
2023-05-05T10:07:47.820Z,44.00
2023-05-05T10:10:17.629Z,43.25
2023-05-05T10:12:47.984Z,43.04
2023-05-05T10:15:16.052Z,43.63
2023-05-05T10:20:21.292Z,44.25
2023-05-05T10:22:53.489Z,43.79
2023-05-05T10:25:30.414Z,43.46
2023-05-05T10:28:00.665Z,43.82
2023-05-05T10:30:32.363Z,43.35
2023-05-05T10:36:01.718Z,42.86
2023-05-05T10:38:33.930Z,42.58
2023-05-05T10:41:02.443Z,41.75
2023-05-05T10:43:31.600Z,41.84
2023-05-05T10:45:59.796Z,41.70
2023-05-05T10:48:39.776Z,41.89
2023-05-05T10:51:39.302Z,41.50
2023-05-05T10:54:22.712Z,41.90
2023-05-05T10:56:51.548Z,41.74
2023-05-05T10:59:48.562Z,41.84
2023-05-05T11:02:29.825Z,41.48
2023-05-05T11:05:23.895Z,41.42
2023-05-05T11:07:51.870Z,41.09
2023-05-05T11:10:20.865Z,41.12
2023-05-05T11:12:55.234Z,40.98
2023-05-05T11:15:31.470Z,41.39
2023-05-05T11:18:06.656Z,40.65
2023-05-05T11:20:40.614Z,41.13
2023-05-05T11:23:10.682Z,41.19
2023-05-05T11:25:38.987Z,41.60
2023-05-05T11:28:11.370Z,41.57
2023-05-05T11:30:58.140Z,41.05
2023-05-05T11:33:32.566Z,40.63
2023-05-05T11:36:05.106Z,41.30
2023-05-05T11:38:36.453Z,40.81
2023-05-05T11:41:34.007Z,40.96
2023-05-05T11:44:11.441Z,40.77
2023-05-05T11:46:51.155Z,41.05
2023-05-05T11:49:32.846Z,41.40
2023-05-05T11:52:01.273Z,41.30
2023-05-05T11:54:29.601Z,41.70
2023-05-05T11:57:18.240Z,40.88
2023-05-05T11:59:53.896Z,41.26
2023-05-05T12:02:22.435Z,41.04
2023-05-05T12:04:50.900Z,40.81
2023-05-05T12:07:19.435Z,40.80
2023-05-05T12:09:48.628Z,40.96
2023-05-05T12:12:16.927Z,40.97
2023-05-05T12:14:47.665Z,41.03
2023-05-05T12:17:14.740Z,40.33
2023-05-05T12:20:00.222Z,40.15
2023-05-05T12:22:27.599Z,39.98
2023-05-05T12:24:55.576Z,40.16
2023-05-05T12:27:23.944Z,41.00
2023-05-05T12:29:51.803Z,40.33
2023-05-05T12:32:23.950Z,40.96
2023-05-05T12:34:59.502Z,40.30
2023-05-05T12:37:27.667Z,40.36
2023-05-05T12:39:55.220Z,40.34
2023-05-05T12:42:26.393Z,39.69
2023-05-05T12:44:53.673Z,40.02
2023-05-05T12:47:33.775Z,39.83
2023-05-05T12:50:03.136Z,39.82
2023-05-05T12:52:44.465Z,39.89
2023-05-05T12:55:12.741Z,39.48
2023-05-05T12:58:00.471Z,39.73
2023-05-05T13:00:29.400Z,39.50
2023-05-05T13:02:57.087Z,39.80
2023-05-05T13:05:36.795Z,40.16
2023-05-05T13:08:04.206Z,39.41
2023-05-05T13:10:31.491Z,39.48
2023-05-05T13:12:58.932Z,39.31
2023-05-05T13:15:26.270Z,39.06
2023-05-05T13:18:01.314Z,39.19
2023-05-05T13:20:28.863Z,39.36
2023-05-05T13:22:55.948Z,39.45
2023-05-05T13:25:23.468Z,38.93
2023-05-05T13:27:50.774Z,39.31
2023-05-05T13:30:17.928Z,39.25
2023-05-05T13:32:44.975Z,39.57
2023-05-05T13:35:14.693Z,39.21
2023-05-05T13:37:44.527Z,39.23
2023-05-05T13:40:13.806Z,39.28
2023-05-05T13:42:41.249Z,39.51
2023-05-05T13:45:08.930Z,39.74
2023-05-05T13:47:37.072Z,38.72
2023-05-05T13:50:04.699Z,38.59
2023-05-05T13:52:33.299Z,38.34
2023-05-05T13:55:01.400Z,38.37
2023-05-05T13:57:28.825Z,38.37
2023-05-05T13:59:56.323Z,38.09
2023-05-05T14:02:23.961Z,38.06
2023-05-05T14:04:51.264Z,37.69
2023-05-05T14:07:18.356Z,37.78
2023-05-05T14:09:45.773Z,37.40
2023-05-05T14:12:13.038Z,37.36
2023-05-05T14:14:40.322Z,38.24
2023-05-05T14:17:07.503Z,38.33
2023-05-05T14:19:34.865Z,38.09
2023-05-05T14:22:01.920Z,37.80
2023-05-05T14:24:29.174Z,36.96
2023-05-05T14:26:57.201Z,36.81
2023-05-05T14:29:24.637Z,36.22
2023-05-05T14:31:51.815Z,36.11
2023-05-05T14:34:19.034Z,36.08
2023-05-05T14:36:46.345Z,36.38
2023-05-05T14:39:13.480Z,36.03
2023-05-05T14:41:41.081Z,35.92
2023-05-05T14:44:08.141Z,36.84
2023-05-05T14:46:35.696Z,37.89
2023-05-05T14:49:02.800Z,38.34
2023-05-05T14:51:30.238Z,38.84
2023-05-05T14:53:57.357Z,38.76
2023-05-05T14:56:26.714Z,39.54
2023-05-05T14:58:54.373Z,40.26
2023-05-05T15:01:21.945Z,41.01
2023-05-05T15:03:49.252Z,41.04
2023-05-05T15:06:16.684Z,40.62
2023-05-05T15:08:44.063Z,40.60
2023-05-05T15:11:11.291Z,41.22
2023-05-05T15:13:41.722Z,42.58
2023-05-05T15:16:08.997Z,41.71
2023-05-05T15:18:36.823Z,42.65
2023-05-05T15:21:04.785Z,43.80
2023-05-05T15:23:32.794Z,44.16
2023-05-05T15:25:59.872Z,44.69
2023-05-05T15:28:27.206Z,44.77
2023-05-05T15:30:55.000Z,45.18
2023-05-05T15:33:23.142Z,45.80
2023-05-05T15:35:50.210Z,46.03
2023-05-05T15:38:17.472Z,43.68
2023-05-05T15:40:48.267Z,42.25
2023-05-05T15:43:16.645Z,42.85
2023-05-05T15:45:44.229Z,44.64
2023-05-05T15:48:11.606Z,45.63
2023-05-05T15:50:39.004Z,45.19
2023-05-05T15:53:06.137Z,45.40
2023-05-05T15:55:33.490Z,45.75
2023-05-05T15:58:00.572Z,45.55
2023-05-05T16:00:28.300Z,45.34
2023-05-05T16:02:55.671Z,44.94
2023-05-05T16:05:23.397Z,44.99
2023-05-05T16:07:51.931Z,44.18
2023-05-05T16:10:20.544Z,43.97
2023-05-05T16:12:47.812Z,44.14
2023-05-05T16:15:15.000Z,44.10
2023-05-05T16:17:42.054Z,44.69
2023-05-05T16:20:09.716Z,45.48
2023-05-05T16:22:37.171Z,45.85
2023-05-05T16:25:04.966Z,45.80
2023-05-05T16:27:31.985Z,46.00
2023-05-05T16:29:59.913Z,46.60
2023-05-05T16:32:28.270Z,46.73
2023-05-05T16:34:55.379Z,47.04
2023-05-05T16:37:22.687Z,47.58
2023-05-05T16:39:49.938Z,45.60
2023-05-05T16:42:17.079Z,46.20
2023-05-05T16:44:44.268Z,46.87
2023-05-05T16:47:11.316Z,47.58
2023-05-05T16:49:38.741Z,48.21
2023-05-05T16:52:06.454Z,48.78
2023-05-05T16:54:33.661Z,49.45
2023-05-05T16:57:02.199Z,49.56
2023-05-05T16:59:31.509Z,50.10
2023-05-05T17:01:58.838Z,49.99
2023-05-05T17:04:26.558Z,50.37
2023-05-05T17:06:55.508Z,50.16
2023-05-05T17:09:25.365Z,50.50
2023-05-05T17:11:52.712Z,51.23
2023-05-05T17:14:20.563Z,51.16
2023-05-05T17:16:47.527Z,50.46
2023-05-05T17:19:14.729Z,51.06
2023-05-05T17:21:43.354Z,50.83
2023-05-05T17:24:11.542Z,50.47
2023-05-05T17:26:39.811Z,50.17
2023-05-05T17:29:07.847Z,50.12
2023-05-05T17:31:34.900Z,50.19
2023-05-05T17:34:02.000Z,50.33
2023-05-05T17:36:29.509Z,50.62
2023-05-05T17:38:56.579Z,50.90
2023-05-05T17:41:25.674Z,51.24
2023-05-05T17:43:53.286Z,51.06
2023-05-05T17:46:20.669Z,51.08
2023-05-05T17:48:48.308Z,51.55
2023-05-05T17:51:15.916Z,51.49
2023-05-05T17:53:43.176Z,52.41
2023-05-05T17:56:10.313Z,52.81
2023-05-05T17:58:37.782Z,53.36
2023-05-05T18:01:09.170Z,52.92
2023-05-05T18:03:37.896Z,53.42
2023-05-05T18:06:06.937Z,54.26
2023-05-05T18:08:33.935Z,55.12
2023-05-05T18:11:02.170Z,55.11
2023-05-05T18:13:29.507Z,54.44
2023-05-05T18:15:56.905Z,53.88
2023-05-05T18:18:24.180Z,53.78
2023-05-05T18:20:51.607Z,53.48
2023-05-05T18:23:19.513Z,53.44
2023-05-05T18:25:46.760Z,53.33
2023-05-05T18:28:14.131Z,53.18
2023-05-05T18:30:41.470Z,53.02
2023-05-05T18:33:08.646Z,53.01
2023-05-05T18:35:36.637Z,53.81
2023-05-05T18:38:04.159Z,53.55
2023-05-05T18:40:31.843Z,53.44
2023-05-05T18:42:59.105Z,53.30
2023-05-05T18:45:26.461Z,53.38
2023-05-05T18:47:53.729Z,53.45
2023-05-05T18:50:21.155Z,52.96
2023-05-05T18:52:56.104Z,53.16
2023-05-05T18:55:24.563Z,53.77
2023-05-05T18:57:51.709Z,53.91
2023-05-05T19:00:20.927Z,54.09
2023-05-05T19:02:48.294Z,54.02
2023-05-05T19:05:15.567Z,54.66
2023-05-05T19:07:48.241Z,55.91
2023-05-05T19:10:16.006Z,59.11
2023-05-05T19:12:43.421Z,61.06
2023-05-05T19:15:11.719Z,61.64
2023-05-05T19:17:39.342Z,62.71
2023-05-05T19:20:07.965Z,64.01
2023-05-05T19:22:35.498Z,64.79
2023-05-05T19:25:06.071Z,66.56
2023-05-05T19:27:34.317Z,66.82
2023-05-05T19:30:01.804Z,67.62
2023-05-05T19:32:29.352Z,68.43
2023-05-05T19:34:56.664Z,68.69
2023-05-05T19:37:24.402Z,67.95
2023-05-05T19:39:51.799Z,68.45
2023-05-05T19:42:19.529Z,68.23
2023-05-05T19:44:46.771Z,69.10
2023-05-05T19:47:14.310Z,69.18
2023-05-05T19:49:41.739Z,69.73
2023-05-05T19:52:08.732Z,70.57
2023-05-05T19:54:37.520Z,71.03
2023-05-05T19:57:05.537Z,70.90
2023-05-05T19:59:33.822Z,69.50
2023-05-05T20:02:01.249Z,67.64
2023-05-05T20:04:28.657Z,67.01
2023-05-05T20:06:55.769Z,66.64
2023-05-05T20:09:22.912Z,66.40
2023-05-05T20:11:50.091Z,66.32
2023-05-05T20:14:17.161Z,66.69
2023-05-05T20:16:45.159Z,65.71
2023-05-05T20:19:12.375Z,64.42
2023-05-05T20:21:40.300Z,63.93
2023-05-05T20:24:07.916Z,64.20
2023-05-05T20:26:35.206Z,64.34
2023-05-05T20:29:02.645Z,64.44
2023-05-05T20:31:30.618Z,64.86
2023-05-05T20:33:58.331Z,65.31
2023-05-05T20:36:26.832Z,65.99
2023-05-05T20:38:54.228Z,66.53
2023-05-05T20:41:21.530Z,66.95
2023-05-05T20:43:48.616Z,66.89
2023-05-05T20:46:16.568Z,67.15
2023-05-05T20:48:44.710Z,67.26
2023-05-05T20:51:11.888Z,66.87
2023-05-05T20:53:39.115Z,66.77
2023-05-05T20:56:08.661Z,67.12
2023-05-05T20:58:36.484Z,67.71
2023-05-05T21:01:03.846Z,67.02
2023-05-05T21:03:30.974Z,65.51
2023-05-05T21:06:00.801Z,65.17
2023-05-05T21:08:30.110Z,65.07
2023-05-05T21:10:57.204Z,65.62
2023-05-05T21:13:24.515Z,65.76
2023-05-05T21:15:52.107Z,66.23
2023-05-05T21:18:19.174Z,67.07
2023-05-05T21:20:47.308Z,67.08
2023-05-05T21:23:16.873Z,67.55
2023-05-05T21:25:44.075Z,67.57
2023-05-05T21:28:11.221Z,68.37
2023-05-05T21:30:38.710Z,68.56
2023-05-05T21:33:05.925Z,69.93
2023-05-05T21:35:33.237Z,69.60
2023-05-05T21:38:00.475Z,67.78
2023-05-05T21:40:27.448Z,67.74
2023-05-05T21:42:54.820Z,68.73
2023-05-05T21:45:22.205Z,68.66
2023-05-05T21:47:49.323Z,69.06
2023-05-05T21:50:16.405Z,69.19
2023-05-05T21:52:43.744Z,70.08
2023-05-05T21:55:11.379Z,70.39
2023-05-05T21:57:38.715Z,70.87
2023-05-05T22:00:08.398Z,71.46
2023-05-05T22:02:39.499Z,71.38
2023-05-05T22:05:07.736Z,70.27
2023-05-05T22:07:35.108Z,69.60
2023-05-05T22:10:03.781Z,69.31
2023-05-05T22:12:31.150Z,69.34
2023-05-05T22:14:58.187Z,70.00
2023-05-05T22:17:25.408Z,70.52
2023-05-05T22:19:53.134Z,70.18
2023-05-05T22:22:20.260Z,70.72
2023-05-05T22:24:47.214Z,70.77
2023-05-05T22:27:14.996Z,71.60
2023-05-05T22:29:42.374Z,71.51
2023-05-05T22:32:09.652Z,69.84
2023-05-05T22:34:36.971Z,69.36
2023-05-05T22:37:04.275Z,69.34
2023-05-05T22:39:31.464Z,69.47
2023-05-05T22:41:59.067Z,70.18
2023-05-05T22:44:26.120Z,71.22
2023-05-05T22:46:53.650Z,71.04
2023-05-05T22:49:21.314Z,70.92
2023-05-05T22:51:48.741Z,71.93
2023-05-05T22:54:16.182Z,71.42
2023-05-05T22:56:43.431Z,70.37
2023-05-05T22:59:10.654Z,68.23
2023-05-05T23:01:38.759Z,68.14
2023-05-05T23:04:06.623Z,68.91
2023-05-05T23:06:33.757Z,68.99
2023-05-05T23:09:01.029Z,69.32
2023-05-05T23:11:28.416Z,69.61
2023-05-05T23:13:55.584Z,70.34
2023-05-05T23:16:22.987Z,71.00
2023-05-05T23:18:50.464Z,70.95
2023-05-05T23:21:17.489Z,69.67
2023-05-05T23:23:44.674Z,68.52
2023-05-05T23:26:13.863Z,69.74
2023-05-05T23:28:40.972Z,70.01
2023-05-05T23:31:09.468Z,71.31
2023-05-05T23:35:46.093Z,71.88
2023-05-05T23:38:13.250Z,72.12
2023-05-05T23:40:40.407Z,72.16
2023-05-05T23:43:07.935Z,71.21
2023-05-05T23:45:34.933Z,69.84
2023-05-05T23:48:02.189Z,69.51
2023-05-05T23:50:30.639Z,69.36
2023-05-05T23:52:58.041Z,70.09
2023-05-05T23:55:25.254Z,70.38
2023-05-05T23:57:53.368Z,71.21
